sensor_id;sensor_type;location;lat;lon;timestamp;P1;durP1;ratioP1;P2;durP2;ratioP2
12832;SDS011;6483;51.310;4.462;2022-12-08T00:01:24;4.87;;;3.53;;
12832;SDS011;6483;51.310;4.462;2022-12-08T00:03:51;5.87;;;2.90;;
12832;SDS011;6483;51.310;4.462;2022-12-08T00:09:16;3.00;;;2.60;;
12832;SDS011;6483;51.310;4.462;2022-12-08T00:12:01;4.17;;;2.77;;
12832;SDS011;6483;51.310;4.462;2022-12-08T00:14:48;3.57;;;2.53;;
12832;SDS011;6483;51.310;4.462;2022-12-08T00:17:15;4.50;;;2.37;;
12832;SDS011;6483;51.310;4.462;2022-12-08T00:19:41;6.23;;;2.50;;
12832;SDS011;6483;51.310;4.462;2022-12-08T00:22:10;5.57;;;2.67;;
12832;SDS011;6483;51.310;4.462;2022-12-08T00:24:38;3.03;;;2.30;;
12832;SDS011;6483;51.310;4.462;2022-12-08T00:27:08;3.87;;;2.43;;
12832;SDS011;6483;51.310;4.462;2022-12-08T00:29:36;4.87;;;2.57;;
12832;SDS011;6483;51.310;4.462;2022-12-08T00:32:05;4.83;;;2.80;;
12832;SDS011;6483;51.310;4.462;2022-12-08T00:34:31;4.10;;;2.40;;
12832;SDS011;6483;51.310;4.462;2022-12-08T00:37:00;8.67;;;3.43;;
12832;SDS011;6483;51.310;4.462;2022-12-08T00:39:26;9.17;;;4.33;;
12832;SDS011;6483;51.310;4.462;2022-12-08T00:41:52;5.90;;;3.80;;
12832;SDS011;6483;51.310;4.462;2022-12-08T00:44:40;8.20;;;4.47;;
12832;SDS011;6483;51.310;4.462;2022-12-08T00:47:08;6.33;;;4.20;;
12832;SDS011;6483;51.310;4.462;2022-12-08T00:49:34;9.40;;;5.00;;
12832;SDS011;6483;51.310;4.462;2022-12-08T00:52:00;5.50;;;4.50;;
12832;SDS011;6483;51.310;4.462;2022-12-08T00:54:26;8.57;;;4.37;;
12832;SDS011;6483;51.310;4.462;2022-12-08T00:56:51;6.87;;;4.40;;
12832;SDS011;6483;51.310;4.462;2022-12-08T00:59:20;11.70;;;7.53;;
12832;SDS011;6483;51.310;4.462;2022-12-08T01:01:48;11.83;;;8.17;;
12832;SDS011;6483;51.310;4.462;2022-12-08T01:04:15;13.17;;;8.50;;
12832;SDS011;6483;51.310;4.462;2022-12-08T01:06:43;12.07;;;8.33;;
12832;SDS011;6483;51.310;4.462;2022-12-08T01:09:13;11.83;;;7.93;;
12832;SDS011;6483;51.310;4.462;2022-12-08T01:11:40;13.60;;;8.07;;
12832;SDS011;6483;51.310;4.462;2022-12-08T01:14:08;10.90;;;7.20;;
12832;SDS011;6483;51.310;4.462;2022-12-08T01:16:37;11.27;;;5.83;;
12832;SDS011;6483;51.310;4.462;2022-12-08T01:19:05;8.57;;;5.80;;
12832;SDS011;6483;51.310;4.462;2022-12-08T01:21:31;10.17;;;5.83;;
12832;SDS011;6483;51.310;4.462;2022-12-08T01:23:58;12.63;;;7.53;;
12832;SDS011;6483;51.310;4.462;2022-12-08T01:26:26;17.60;;;11.83;;
12832;SDS011;6483;51.310;4.462;2022-12-08T01:28:54;19.47;;;12.77;;
12832;SDS011;6483;51.310;4.462;2022-12-08T01:31:20;19.30;;;11.80;;
12832;SDS011;6483;51.310;4.462;2022-12-08T01:34:05;23.53;;;12.67;;
12832;SDS011;6483;51.310;4.462;2022-12-08T01:36:32;28.43;;;15.93;;
12832;SDS011;6483;51.310;4.462;2022-12-08T01:39:02;22.07;;;14.57;;
12832;SDS011;6483;51.310;4.462;2022-12-08T01:41:33;23.93;;;14.60;;
12832;SDS011;6483;51.310;4.462;2022-12-08T01:46:41;25.30;;;15.53;;
12832;SDS011;6483;51.310;4.462;2022-12-08T01:54:57;23.80;;;15.53;;
12832;SDS011;6483;51.310;4.462;2022-12-08T01:57:35;26.73;;;17.17;;
12832;SDS011;6483;51.310;4.462;2022-12-08T02:00:11;24.37;;;15.17;;
12832;SDS011;6483;51.310;4.462;2022-12-08T02:02:47;24.77;;;15.30;;
12832;SDS011;6483;51.310;4.462;2022-12-08T02:05:18;23.43;;;14.20;;
12832;SDS011;6483;51.310;4.462;2022-12-08T02:07:50;24.97;;;13.70;;
12832;SDS011;6483;51.310;4.462;2022-12-08T02:10:17;19.30;;;12.87;;
12832;SDS011;6483;51.310;4.462;2022-12-08T02:12:46;18.47;;;12.13;;
12832;SDS011;6483;51.310;4.462;2022-12-08T02:15:14;25.50;;;12.43;;
12832;SDS011;6483;51.310;4.462;2022-12-08T02:20:32;19.93;;;12.30;;
12832;SDS011;6483;51.310;4.462;2022-12-08T02:35:17;16.33;;;10.93;;
12832;SDS011;6483;51.310;4.462;2022-12-08T02:38:22;14.90;;;9.57;;
12832;SDS011;6483;51.310;4.462;2022-12-08T02:43:28;16.53;;;9.87;;
12832;SDS011;6483;51.310;4.462;2022-12-08T02:46:07;19.47;;;9.83;;
12832;SDS011;6483;51.310;4.462;2022-12-08T02:48:37;17.67;;;10.87;;
12832;SDS011;6483;51.310;4.462;2022-12-08T02:51:04;16.50;;;11.03;;
12832;SDS011;6483;51.310;4.462;2022-12-08T02:53:31;14.77;;;10.03;;
12832;SDS011;6483;51.310;4.462;2022-12-08T02:56:07;18.17;;;10.67;;
12832;SDS011;6483;51.310;4.462;2022-12-08T02:58:39;17.33;;;10.27;;
12832;SDS011;6483;51.310;4.462;2022-12-08T03:01:33;13.33;;;8.67;;
12832;SDS011;6483;51.310;4.462;2022-12-08T03:04:18;18.07;;;9.53;;
12832;SDS011;6483;51.310;4.462;2022-12-08T03:07:03;14.53;;;9.40;;
12832;SDS011;6483;51.310;4.462;2022-12-08T03:09:45;16.33;;;8.87;;
12832;SDS011;6483;51.310;4.462;2022-12-08T03:12:19;18.30;;;9.10;;
12832;SDS011;6483;51.310;4.462;2022-12-08T03:14:49;15.60;;;9.57;;
12832;SDS011;6483;51.310;4.462;2022-12-08T03:17:19;14.23;;;8.70;;
12832;SDS011;6483;51.310;4.462;2022-12-08T03:19:47;16.20;;;8.33;;
12832;SDS011;6483;51.310;4.462;2022-12-08T03:22:14;18.23;;;8.87;;
12832;SDS011;6483;51.310;4.462;2022-12-08T03:24:44;16.70;;;10.13;;
12832;SDS011;6483;51.310;4.462;2022-12-08T03:27:21;17.77;;;9.67;;
12832;SDS011;6483;51.310;4.462;2022-12-08T03:29:53;16.27;;;9.33;;
12832;SDS011;6483;51.310;4.462;2022-12-08T03:32:33;19.07;;;10.90;;
12832;SDS011;6483;51.310;4.462;2022-12-08T03:35:24;21.30;;;11.97;;
12832;SDS011;6483;51.310;4.462;2022-12-08T03:40:46;24.00;;;12.03;;
12832;SDS011;6483;51.310;4.462;2022-12-08T03:43:32;27.17;;;12.33;;
12832;SDS011;6483;51.310;4.462;2022-12-08T03:45:57;20.27;;;12.23;;
12832;SDS011;6483;51.310;4.462;2022-12-08T03:48:23;24.13;;;12.37;;
12832;SDS011;6483;51.310;4.462;2022-12-08T03:50:48;21.77;;;11.83;;
12832;SDS011;6483;51.310;4.462;2022-12-08T03:53:17;27.50;;;14.03;;
12832;SDS011;6483;51.310;4.462;2022-12-08T03:55:46;24.43;;;13.33;;
12832;SDS011;6483;51.310;4.462;2022-12-08T03:58:13;24.03;;;11.97;;
12832;SDS011;6483;51.310;4.462;2022-12-08T04:00:42;19.47;;;12.00;;
12832;SDS011;6483;51.310;4.462;2022-12-08T04:03:08;20.83;;;11.23;;
12832;SDS011;6483;51.310;4.462;2022-12-08T04:05:36;23.27;;;12.20;;
12832;SDS011;6483;51.310;4.462;2022-12-08T04:08:03;23.93;;;11.60;;
12832;SDS011;6483;51.310;4.462;2022-12-08T04:10:29;18.87;;;11.80;;
12832;SDS011;6483;51.310;4.462;2022-12-08T04:12:56;22.07;;;11.87;;
12832;SDS011;6483;51.310;4.462;2022-12-08T04:15:24;19.83;;;10.83;;
12832;SDS011;6483;51.310;4.462;2022-12-08T04:17:50;17.43;;;10.07;;
12832;SDS011;6483;51.310;4.462;2022-12-08T04:20:16;16.57;;;9.50;;
12832;SDS011;6483;51.310;4.462;2022-12-08T04:22:42;16.87;;;9.50;;
12832;SDS011;6483;51.310;4.462;2022-12-08T04:25:08;18.50;;;9.13;;
12832;SDS011;6483;51.310;4.462;2022-12-08T04:27:33;15.23;;;8.63;;
12832;SDS011;6483;51.310;4.462;2022-12-08T04:30:02;17.20;;;8.23;;
12832;SDS011;6483;51.310;4.462;2022-12-08T04:32:28;13.17;;;7.47;;
12832;SDS011;6483;51.310;4.462;2022-12-08T04:34:54;15.53;;;7.50;;
12832;SDS011;6483;51.310;4.462;2022-12-08T04:37:22;14.53;;;7.30;;
12832;SDS011;6483;51.310;4.462;2022-12-08T04:39:48;11.67;;;6.50;;
12832;SDS011;6483;51.310;4.462;2022-12-08T04:42:13;9.30;;;7.30;;
12832;SDS011;6483;51.310;4.462;2022-12-08T04:44:40;8.33;;;6.67;;
12832;SDS011;6483;51.310;4.462;2022-12-08T04:47:06;16.40;;;7.10;;
12832;SDS011;6483;51.310;4.462;2022-12-08T04:49:32;12.20;;;7.03;;
12832;SDS011;6483;51.310;4.462;2022-12-08T04:51:58;11.87;;;7.10;;
12832;SDS011;6483;51.310;4.462;2022-12-08T04:54:29;12.00;;;7.23;;
12832;SDS011;6483;51.310;4.462;2022-12-08T04:56:58;11.23;;;7.43;;
12832;SDS011;6483;51.310;4.462;2022-12-08T04:59:25;11.63;;;7.13;;
12832;SDS011;6483;51.310;4.462;2022-12-08T05:01:50;18.50;;;7.63;;
12832;SDS011;6483;51.310;4.462;2022-12-08T05:04:18;12.17;;;6.97;;
12832;SDS011;6483;51.310;4.462;2022-12-08T05:06:44;14.23;;;6.90;;
12832;SDS011;6483;51.310;4.462;2022-12-08T05:09:10;11.97;;;6.70;;
12832;SDS011;6483;51.310;4.462;2022-12-08T05:11:36;11.63;;;6.57;;
12832;SDS011;6483;51.310;4.462;2022-12-08T05:14:12;9.33;;;6.23;;
12832;SDS011;6483;51.310;4.462;2022-12-08T05:16:43;10.83;;;7.30;;
12832;SDS011;6483;51.310;4.462;2022-12-08T05:19:09;18.17;;;7.40;;
12832;SDS011;6483;51.310;4.462;2022-12-08T05:21:37;11.87;;;7.30;;
12832;SDS011;6483;51.310;4.462;2022-12-08T05:24:05;11.80;;;7.90;;
12832;SDS011;6483;51.310;4.462;2022-12-08T05:26:49;15.17;;;8.57;;
12832;SDS011;6483;51.310;4.462;2022-12-08T05:29:15;13.60;;;8.83;;
12832;SDS011;6483;51.310;4.462;2022-12-08T05:31:44;15.60;;;9.33;;
12832;SDS011;6483;51.310;4.462;2022-12-08T05:34:09;14.37;;;9.67;;
12832;SDS011;6483;51.310;4.462;2022-12-08T05:36:35;15.90;;;9.87;;
12832;SDS011;6483;51.310;4.462;2022-12-08T05:39:01;17.43;;;10.90;;
12832;SDS011;6483;51.310;4.462;2022-12-08T05:41:26;21.97;;;10.83;;
12832;SDS011;6483;51.310;4.462;2022-12-08T05:43:52;17.60;;;11.13;;
12832;SDS011;6483;51.310;4.462;2022-12-08T05:46:18;16.53;;;12.27;;
12832;SDS011;6483;51.310;4.462;2022-12-08T05:48:44;20.67;;;12.13;;
12832;SDS011;6483;51.310;4.462;2022-12-08T05:51:20;22.73;;;13.17;;
12832;SDS011;6483;51.310;4.462;2022-12-08T05:53:51;25.17;;;13.37;;
12832;SDS011;6483;51.310;4.462;2022-12-08T05:56:18;21.90;;;13.73;;
12832;SDS011;6483;51.310;4.462;2022-12-08T05:58:44;28.37;;;13.60;;
12832;SDS011;6483;51.310;4.462;2022-12-08T06:01:44;19.17;;;12.80;;
12832;SDS011;6483;51.310;4.462;2022-12-08T06:04:03;23.63;;;13.60;;
12832;SDS011;6483;51.310;4.462;2022-12-08T06:06:29;19.47;;;12.50;;
12832;SDS011;6483;51.310;4.462;2022-12-08T06:08:55;22.43;;;13.60;;
12832;SDS011;6483;51.310;4.462;2022-12-08T06:11:26;20.97;;;13.70;;
12832;SDS011;6483;51.310;4.462;2022-12-08T06:13:54;22.33;;;13.67;;
12832;SDS011;6483;51.310;4.462;2022-12-08T06:16:21;26.87;;;14.20;;
12832;SDS011;6483;51.310;4.462;2022-12-08T06:18:47;25.43;;;13.70;;
12832;SDS011;6483;51.310;4.462;2022-12-08T06:21:13;29.93;;;13.67;;
12832;SDS011;6483;51.310;4.462;2022-12-08T06:23:39;23.40;;;12.70;;
12832;SDS011;6483;51.310;4.462;2022-12-08T06:26:15;22.10;;;12.43;;
12832;SDS011;6483;51.310;4.462;2022-12-08T06:28:41;22.80;;;12.27;;
12832;SDS011;6483;51.310;4.462;2022-12-08T06:33:40;26.47;;;12.63;;
12832;SDS011;6483;51.310;4.462;2022-12-08T06:36:06;25.33;;;12.63;;
12832;SDS011;6483;51.310;4.462;2022-12-08T06:38:32;21.43;;;12.30;;
12832;SDS011;6483;51.310;4.462;2022-12-08T06:41:00;19.23;;;12.30;;
12832;SDS011;6483;51.310;4.462;2022-12-08T06:43:30;19.43;;;12.03;;
12832;SDS011;6483;51.310;4.462;2022-12-08T06:45:58;18.57;;;11.97;;
12832;SDS011;6483;51.310;4.462;2022-12-08T06:48:23;21.37;;;12.03;;
12832;SDS011;6483;51.310;4.462;2022-12-08T06:50:49;22.47;;;11.90;;
12832;SDS011;6483;51.310;4.462;2022-12-08T06:53:16;21.53;;;12.17;;
12832;SDS011;6483;51.310;4.462;2022-12-08T06:56:04;20.70;;;12.03;;
12832;SDS011;6483;51.310;4.462;2022-12-08T06:58:29;21.33;;;12.37;;
12832;SDS011;6483;51.310;4.462;2022-12-08T07:01:02;28.00;;;11.87;;
12832;SDS011;6483;51.310;4.462;2022-12-08T07:03:29;19.03;;;12.00;;
12832;SDS011;6483;51.310;4.462;2022-12-08T07:05:55;21.23;;;11.90;;
12832;SDS011;6483;51.310;4.462;2022-12-08T07:08:21;28.10;;;12.70;;
12832;SDS011;6483;51.310;4.462;2022-12-08T07:10:48;23.40;;;12.17;;
12832;SDS011;6483;51.310;4.462;2022-12-08T07:13:23;28.50;;;12.50;;
12832;SDS011;6483;51.310;4.462;2022-12-08T07:16:34;17.40;;;11.07;;
12832;SDS011;6483;51.310;4.462;2022-12-08T07:18:41;17.87;;;10.70;;
12832;SDS011;6483;51.310;4.462;2022-12-08T07:21:11;17.57;;;10.87;;
12832;SDS011;6483;51.310;4.462;2022-12-08T07:23:39;23.30;;;11.50;;
12832;SDS011;6483;51.310;4.462;2022-12-08T07:26:29;18.33;;;10.70;;
12832;SDS011;6483;51.310;4.462;2022-12-08T07:28:54;17.90;;;10.57;;
12832;SDS011;6483;51.310;4.462;2022-12-08T07:31:24;23.13;;;10.37;;
12832;SDS011;6483;51.310;4.462;2022-12-08T07:33:51;18.37;;;10.00;;
12832;SDS011;6483;51.310;4.462;2022-12-08T07:36:17;21.47;;;10.83;;
12832;SDS011;6483;51.310;4.462;2022-12-08T07:38:46;22.40;;;11.73;;
12832;SDS011;6483;51.310;4.462;2022-12-08T07:41:14;16.07;;;9.30;;
12832;SDS011;6483;51.310;4.462;2022-12-08T07:43:42;20.63;;;10.50;;
12832;SDS011;6483;51.310;4.462;2022-12-08T07:46:12;20.47;;;10.53;;
12832;SDS011;6483;51.310;4.462;2022-12-08T07:48:40;16.10;;;10.33;;
12832;SDS011;6483;51.310;4.462;2022-12-08T07:51:07;19.53;;;9.83;;
12832;SDS011;6483;51.310;4.462;2022-12-08T07:53:34;22.30;;;10.07;;
12832;SDS011;6483;51.310;4.462;2022-12-08T07:56:12;16.13;;;9.40;;
12832;SDS011;6483;51.310;4.462;2022-12-08T07:58:49;19.07;;;9.37;;
12832;SDS011;6483;51.310;4.462;2022-12-08T08:01:33;22.70;;;9.77;;
12832;SDS011;6483;51.310;4.462;2022-12-08T08:04:02;19.80;;;10.53;;
12832;SDS011;6483;51.310;4.462;2022-12-08T08:07:11;22.17;;;10.53;;
12832;SDS011;6483;51.310;4.462;2022-12-08T08:09:18;20.13;;;10.53;;
12832;SDS011;6483;51.310;4.462;2022-12-08T08:11:45;22.83;;;10.80;;
12832;SDS011;6483;51.310;4.462;2022-12-08T08:14:32;19.73;;;10.20;;
12832;SDS011;6483;51.310;4.462;2022-12-08T08:16:58;17.30;;;10.23;;
12832;SDS011;6483;51.310;4.462;2022-12-08T08:19:24;19.53;;;11.70;;
12832;SDS011;6483;51.310;4.462;2022-12-08T08:21:50;20.77;;;12.00;;
12832;SDS011;6483;51.310;4.462;2022-12-08T08:24:15;20.20;;;10.97;;
12832;SDS011;6483;51.310;4.462;2022-12-08T08:26:41;18.87;;;9.90;;
12832;SDS011;6483;51.310;4.462;2022-12-08T08:29:07;17.70;;;10.00;;
12832;SDS011;6483;51.310;4.462;2022-12-08T08:31:35;14.47;;;9.10;;
12832;SDS011;6483;51.310;4.462;2022-12-08T08:34:01;21.20;;;9.17;;
12832;SDS011;6483;51.310;4.462;2022-12-08T08:36:30;17.00;;;7.57;;
12832;SDS011;6483;51.310;4.462;2022-12-08T08:38:56;21.23;;;8.37;;
12832;SDS011;6483;51.310;4.462;2022-12-08T08:41:25;23.07;;;9.63;;
12832;SDS011;6483;51.310;4.462;2022-12-08T08:43:50;22.33;;;9.57;;
12832;SDS011;6483;51.310;4.462;2022-12-08T08:46:16;35.03;;;10.90;;
12832;SDS011;6483;51.310;4.462;2022-12-08T08:48:41;24.30;;;10.03;;
12832;SDS011;6483;51.310;4.462;2022-12-08T08:51:08;23.67;;;10.93;;
12832;SDS011;6483;51.310;4.462;2022-12-08T08:53:36;25.37;;;10.43;;
12832;SDS011;6483;51.310;4.462;2022-12-08T08:56:15;22.77;;;10.03;;
12832;SDS011;6483;51.310;4.462;2022-12-08T08:58:43;19.50;;;9.60;;
12832;SDS011;6483;51.310;4.462;2022-12-08T09:01:15;17.20;;;8.97;;
12832;SDS011;6483;51.310;4.462;2022-12-08T09:03:45;19.00;;;9.30;;
12832;SDS011;6483;51.310;4.462;2022-12-08T09:06:13;20.40;;;10.23;;
12832;SDS011;6483;51.310;4.462;2022-12-08T09:08:40;27.60;;;10.17;;
12832;SDS011;6483;51.310;4.462;2022-12-08T09:11:06;25.70;;;10.50;;
12832;SDS011;6483;51.310;4.462;2022-12-08T09:13:35;22.80;;;10.70;;
12832;SDS011;6483;51.310;4.462;2022-12-08T09:16:04;18.33;;;9.70;;
12832;SDS011;6483;51.310;4.462;2022-12-08T09:18:31;20.90;;;10.07;;
12832;SDS011;6483;51.310;4.462;2022-12-08T09:21:04;22.40;;;9.23;;
12832;SDS011;6483;51.310;4.462;2022-12-08T09:23:34;16.73;;;7.67;;
12832;SDS011;6483;51.310;4.462;2022-12-08T09:26:02;11.67;;;6.20;;
12832;SDS011;6483;51.310;4.462;2022-12-08T09:28:31;14.20;;;7.80;;
12832;SDS011;6483;51.310;4.462;2022-12-08T09:30:57;14.30;;;5.97;;
12832;SDS011;6483;51.310;4.462;2022-12-08T09:33:25;18.20;;;6.60;;
12832;SDS011;6483;51.310;4.462;2022-12-08T09:35:51;12.43;;;6.00;;
12832;SDS011;6483;51.310;4.462;2022-12-08T09:38:19;12.53;;;6.63;;
12832;SDS011;6483;51.310;4.462;2022-12-08T09:40:52;19.20;;;6.63;;
12832;SDS011;6483;51.310;4.462;2022-12-08T09:46:15;17.60;;;6.23;;
12832;SDS011;6483;51.310;4.462;2022-12-08T09:49:32;11.50;;;6.30;;
12832;SDS011;6483;51.310;4.462;2022-12-08T09:51:47;10.03;;;4.83;;
12832;SDS011;6483;51.310;4.462;2022-12-08T09:56:45;15.93;;;5.40;;
12832;SDS011;6483;51.310;4.462;2022-12-08T10:01:47;10.30;;;5.87;;
12832;SDS011;6483;51.310;4.462;2022-12-08T10:04:18;11.40;;;4.83;;
12832;SDS011;6483;51.310;4.462;2022-12-08T10:09:44;8.40;;;4.77;;
12832;SDS011;6483;51.310;4.462;2022-12-08T10:14:54;5.47;;;3.77;;
12832;SDS011;6483;51.310;4.462;2022-12-08T10:17:45;8.37;;;3.60;;
12832;SDS011;6483;51.310;4.462;2022-12-08T10:20:37;7.80;;;3.13;;
12832;SDS011;6483;51.310;4.462;2022-12-08T10:25:51;8.67;;;3.17;;
12832;SDS011;6483;51.310;4.462;2022-12-08T10:28:26;7.90;;;3.70;;
12832;SDS011;6483;51.310;4.462;2022-12-08T10:30:52;6.67;;;2.90;;
12832;SDS011;6483;51.310;4.462;2022-12-08T10:33:18;7.00;;;3.50;;
12832;SDS011;6483;51.310;4.462;2022-12-08T10:35:47;9.77;;;3.80;;
12832;SDS011;6483;51.310;4.462;2022-12-08T10:38:19;7.50;;;3.43;;
12832;SDS011;6483;51.310;4.462;2022-12-08T10:40:51;8.10;;;3.63;;
12832;SDS011;6483;51.310;4.462;2022-12-08T10:43:25;7.80;;;3.63;;
12832;SDS011;6483;51.310;4.462;2022-12-08T10:45:51;6.37;;;3.10;;
12832;SDS011;6483;51.310;4.462;2022-12-08T10:53:21;4.27;;;2.80;;
12832;SDS011;6483;51.310;4.462;2022-12-08T10:56:05;6.77;;;2.67;;
12832;SDS011;6483;51.310;4.462;2022-12-08T10:58:42;8.47;;;2.70;;
12832;SDS011;6483;51.310;4.462;2022-12-08T11:04:14;2.87;;;2.10;;
12832;SDS011;6483;51.310;4.462;2022-12-08T11:07:07;3.90;;;2.10;;
12832;SDS011;6483;51.310;4.462;2022-12-08T11:12:15;5.57;;;2.30;;
12832;SDS011;6483;51.310;4.462;2022-12-08T11:19:58;3.30;;;1.63;;
12832;SDS011;6483;51.310;4.462;2022-12-08T11:22:30;3.37;;;1.90;;
12832;SDS011;6483;51.310;4.462;2022-12-08T11:27:32;3.17;;;1.87;;
12832;SDS011;6483;51.310;4.462;2022-12-08T11:30:05;4.10;;;2.10;;
12832;SDS011;6483;51.310;4.462;2022-12-08T11:32:47;3.23;;;2.00;;
12832;SDS011;6483;51.310;4.462;2022-12-08T11:35:22;4.50;;;2.23;;
12832;SDS011;6483;51.310;4.462;2022-12-08T11:37:48;6.47;;;2.40;;
12832;SDS011;6483;51.310;4.462;2022-12-08T11:45:38;8.20;;;2.70;;
12832;SDS011;6483;51.310;4.462;2022-12-08T11:53:34;4.00;;;2.00;;
12832;SDS011;6483;51.310;4.462;2022-12-08T11:56:18;2.83;;;2.30;;
12832;SDS011;6483;51.310;4.462;2022-12-08T11:58:58;3.80;;;1.57;;
12832;SDS011;6483;51.310;4.462;2022-12-08T12:01:34;3.13;;;1.30;;
12832;SDS011;6483;51.310;4.462;2022-12-08T12:04:05;5.17;;;1.53;;
12832;SDS011;6483;51.310;4.462;2022-12-08T12:17:44;1.40;;;0.80;;
12832;SDS011;6483;51.310;4.462;2022-12-08T12:20:36;2.07;;;1.13;;
12832;SDS011;6483;51.310;4.462;2022-12-08T12:26:33;1.57;;;1.00;;
12832;SDS011;6483;51.310;4.462;2022-12-08T12:29:19;1.30;;;1.20;;
12832;SDS011;6483;51.310;4.462;2022-12-08T12:31:54;1.53;;;1.20;;
12832;SDS011;6483;51.310;4.462;2022-12-08T12:34:37;2.40;;;1.97;;
12832;SDS011;6483;51.310;4.462;2022-12-08T12:37:34;9.97;;;6.50;;
12832;SDS011;6483;51.310;4.462;2022-12-08T12:40:04;5.10;;;3.73;;
12832;SDS011;6483;51.310;4.462;2022-12-08T12:42:47;5.03;;;2.70;;
12832;SDS011;6483;51.310;4.462;2022-12-08T12:45:34;3.77;;;3.03;;
12832;SDS011;6483;51.310;4.462;2022-12-08T12:48:19;3.30;;;3.00;;
12832;SDS011;6483;51.310;4.462;2022-12-08T12:50:48;3.30;;;3.00;;
12832;SDS011;6483;51.310;4.462;2022-12-08T12:55:57;4.97;;;3.07;;
12832;SDS011;6483;51.310;4.462;2022-12-08T13:03:42;5.63;;;3.47;;
12832;SDS011;6483;51.310;4.462;2022-12-08T13:06:32;3.87;;;3.47;;
12832;SDS011;6483;51.310;4.462;2022-12-08T13:09:03;4.63;;;3.00;;
12832;SDS011;6483;51.310;4.462;2022-12-08T13:11:42;5.23;;;4.00;;
12832;SDS011;6483;51.310;4.462;2022-12-08T13:14:46;3.80;;;3.37;;
12832;SDS011;6483;51.310;4.462;2022-12-08T13:17:47;4.40;;;3.60;;
12832;SDS011;6483;51.310;4.462;2022-12-08T13:20:15;7.30;;;6.57;;
12832;SDS011;6483;51.310;4.462;2022-12-08T13:23:12;3.47;;;3.10;;
12832;SDS011;6483;51.310;4.462;2022-12-08T13:25:49;3.30;;;3.00;;
12832;SDS011;6483;51.310;4.462;2022-12-08T13:34:36;3.23;;;2.93;;
12832;SDS011;6483;51.310;4.462;2022-12-08T13:37:33;3.37;;;3.07;;
12832;SDS011;6483;51.310;4.462;2022-12-08T13:40:11;4.67;;;3.50;;
12832;SDS011;6483;51.310;4.462;2022-12-08T13:45:30;4.70;;;4.03;;
12832;SDS011;6483;51.310;4.462;2022-12-08T13:48:01;5.53;;;4.73;;
12832;SDS011;6483;51.310;4.462;2022-12-08T13:53:46;5.70;;;4.53;;
12832;SDS011;6483;51.310;4.462;2022-12-08T13:56:25;7.77;;;5.87;;
12832;SDS011;6483;51.310;4.462;2022-12-08T14:01:55;9.73;;;5.73;;
12832;SDS011;6483;51.310;4.462;2022-12-08T14:04:23;11.33;;;5.57;;
12832;SDS011;6483;51.310;4.462;2022-12-08T14:06:59;8.50;;;5.53;;
12832;SDS011;6483;51.310;4.462;2022-12-08T14:09:28;12.70;;;7.57;;
12832;SDS011;6483;51.310;4.462;2022-12-08T14:12:03;12.53;;;7.10;;
12832;SDS011;6483;51.310;4.462;2022-12-08T14:14:45;8.77;;;6.10;;
12832;SDS011;6483;51.310;4.462;2022-12-08T14:17:14;9.37;;;4.40;;
12832;SDS011;6483;51.310;4.462;2022-12-08T14:19:43;6.17;;;4.17;;
12832;SDS011;6483;51.310;4.462;2022-12-08T14:22:17;8.87;;;3.90;;
12832;SDS011;6483;51.310;4.462;2022-12-08T14:24:43;7.57;;;5.50;;
12832;SDS011;6483;51.310;4.462;2022-12-08T14:27:12;15.80;;;8.50;;
12832;SDS011;6483;51.310;4.462;2022-12-08T14:32:57;7.93;;;5.30;;
12832;SDS011;6483;51.310;4.462;2022-12-08T14:35:33;10.37;;;4.90;;
12832;SDS011;6483;51.310;4.462;2022-12-08T14:38:01;28.47;;;14.43;;
12832;SDS011;6483;51.310;4.462;2022-12-08T14:40:32;14.07;;;5.60;;
12832;SDS011;6483;51.310;4.462;2022-12-08T14:54:01;5.47;;;3.07;;
12832;SDS011;6483;51.310;4.462;2022-12-08T15:04:46;11.47;;;6.83;;
12832;SDS011;6483;51.310;4.462;2022-12-08T15:07:18;9.87;;;6.10;;
12832;SDS011;6483;51.310;4.462;2022-12-08T15:09:47;8.33;;;4.70;;
12832;SDS011;6483;51.310;4.462;2022-12-08T15:12:32;5.13;;;3.30;;
12832;SDS011;6483;51.310;4.462;2022-12-08T15:15:13;8.73;;;3.80;;
12832;SDS011;6483;51.310;4.462;2022-12-08T15:18:10;5.67;;;3.37;;
12832;SDS011;6483;51.310;4.462;2022-12-08T15:25:55;4.93;;;3.90;;
12832;SDS011;6483;51.310;4.462;2022-12-08T15:31:07;8.60;;;4.17;;
12832;SDS011;6483;51.310;4.462;2022-12-08T15:33:34;9.07;;;5.00;;
12832;SDS011;6483;51.310;4.462;2022-12-08T15:36:01;6.53;;;5.27;;
12832;SDS011;6483;51.310;4.462;2022-12-08T15:38:40;9.90;;;5.97;;
12832;SDS011;6483;51.310;4.462;2022-12-08T15:41:06;9.07;;;6.30;;
12832;SDS011;6483;51.310;4.462;2022-12-08T15:43:32;20.23;;;12.40;;
12832;SDS011;6483;51.310;4.462;2022-12-08T15:45:58;9.27;;;5.73;;
12832;SDS011;6483;51.310;4.462;2022-12-08T15:48:25;9.60;;;5.67;;
12832;SDS011;6483;51.310;4.462;2022-12-08T15:50:53;6.53;;;5.40;;
12832;SDS011;6483;51.310;4.462;2022-12-08T15:53:23;9.43;;;5.80;;
12832;SDS011;6483;51.310;4.462;2022-12-08T15:55:52;9.00;;;5.90;;
12832;SDS011;6483;51.310;4.462;2022-12-08T15:58:19;13.83;;;5.53;;
12832;SDS011;6483;51.310;4.462;2022-12-08T16:00:47;7.83;;;4.73;;
12832;SDS011;6483;51.310;4.462;2022-12-08T16:03:18;22.13;;;12.83;;
12832;SDS011;6483;51.310;4.462;2022-12-08T16:05:54;9.40;;;4.83;;
12832;SDS011;6483;51.310;4.462;2022-12-08T16:08:24;10.37;;;4.73;;
12832;SDS011;6483;51.310;4.462;2022-12-08T16:10:50;9.33;;;5.50;;
12832;SDS011;6483;51.310;4.462;2022-12-08T16:13:17;9.47;;;5.73;;
12832;SDS011;6483;51.310;4.462;2022-12-08T16:16:07;7.23;;;5.53;;
12832;SDS011;6483;51.310;4.462;2022-12-08T16:18:37;10.47;;;6.17;;
12832;SDS011;6483;51.310;4.462;2022-12-08T16:21:04;10.33;;;6.03;;
12832;SDS011;6483;51.310;4.462;2022-12-08T16:23:33;10.97;;;6.03;;
12832;SDS011;6483;51.310;4.462;2022-12-08T16:26:00;13.60;;;6.60;;
12832;SDS011;6483;51.310;4.462;2022-12-08T16:28:26;11.77;;;6.80;;
12832;SDS011;6483;51.310;4.462;2022-12-08T16:30:51;13.77;;;7.80;;
12832;SDS011;6483;51.310;4.462;2022-12-08T16:33:17;15.23;;;8.77;;
12832;SDS011;6483;51.310;4.462;2022-12-08T16:35:46;16.53;;;9.70;;
12832;SDS011;6483;51.310;4.462;2022-12-08T16:38:15;13.00;;;8.00;;
12832;SDS011;6483;51.310;4.462;2022-12-08T16:40:47;15.13;;;8.33;;
12832;SDS011;6483;51.310;4.462;2022-12-08T16:43:39;18.33;;;9.27;;
12832;SDS011;6483;51.310;4.462;2022-12-08T16:46:18;13.47;;;8.93;;
12832;SDS011;6483;51.310;4.462;2022-12-08T16:48:47;18.20;;;8.63;;
12832;SDS011;6483;51.310;4.462;2022-12-08T16:51:17;15.03;;;8.53;;
12832;SDS011;6483;51.310;4.462;2022-12-08T16:53:44;16.20;;;8.37;;
12832;SDS011;6483;51.310;4.462;2022-12-08T16:56:21;13.47;;;7.90;;
12832;SDS011;6483;51.310;4.462;2022-12-08T16:58:47;12.37;;;8.00;;
12832;SDS011;6483;51.310;4.462;2022-12-08T17:01:14;13.50;;;7.87;;
12832;SDS011;6483;51.310;4.462;2022-12-08T17:03:41;12.43;;;7.73;;
12832;SDS011;6483;51.310;4.462;2022-12-08T17:06:12;11.73;;;7.60;;
12832;SDS011;6483;51.310;4.462;2022-12-08T17:08:42;14.93;;;7.83;;
12832;SDS011;6483;51.310;4.462;2022-12-08T17:11:19;13.27;;;7.10;;
12832;SDS011;6483;51.310;4.462;2022-12-08T17:13:47;13.07;;;6.37;;
12832;SDS011;6483;51.310;4.462;2022-12-08T17:16:18;11.80;;;7.57;;
12832;SDS011;6483;51.310;4.462;2022-12-08T17:18:45;13.93;;;7.73;;
12832;SDS011;6483;51.310;4.462;2022-12-08T17:21:12;20.40;;;7.77;;
12832;SDS011;6483;51.310;4.462;2022-12-08T17:23:45;15.63;;;9.07;;
12832;SDS011;6483;51.310;4.462;2022-12-08T17:26:14;10.27;;;7.33;;
12832;SDS011;6483;51.310;4.462;2022-12-08T17:28:42;11.53;;;7.37;;
12832;SDS011;6483;51.310;4.462;2022-12-08T17:31:09;14.73;;;7.40;;
12832;SDS011;6483;51.310;4.462;2022-12-08T17:33:39;14.40;;;8.93;;
12832;SDS011;6483;51.310;4.462;2022-12-08T17:36:13;12.60;;;7.50;;
12832;SDS011;6483;51.310;4.462;2022-12-08T17:38:40;54.47;;;22.10;;
12832;SDS011;6483;51.310;4.462;2022-12-08T17:41:06;15.77;;;7.80;;